createdAt,value
2022-12-31T00:01:40.445Z,5.60
2022-12-31T00:04:07.147Z,5.28
2022-12-31T00:06:35.822Z,5.85
2022-12-31T00:09:06.745Z,5.13
2022-12-31T00:11:34.920Z,5.60
2022-12-31T00:14:01.984Z,5.78
2022-12-31T00:16:32.230Z,5.90
2022-12-31T00:19:00.422Z,5.78
2022-12-31T00:21:29.554Z,5.15
2022-12-31T00:23:56.762Z,4.97
2022-12-31T00:26:29.328Z,5.63
2022-12-31T00:28:57.853Z,4.75
2022-12-31T00:31:34.716Z,4.80
2022-12-31T00:34:01.618Z,4.57
2022-12-31T00:36:35.317Z,5.00
2022-12-31T00:39:03.293Z,5.40
2022-12-31T00:41:30.720Z,5.10
2022-12-31T00:43:57.951Z,5.38
2022-12-31T00:46:25.200Z,4.78
2022-12-31T00:48:52.145Z,4.43
2022-12-31T00:51:21.404Z,5.13
2022-12-31T00:53:48.201Z,4.80
2022-12-31T00:56:17.743Z,4.72
2022-12-31T00:58:45.019Z,5.20
2022-12-31T01:01:16.144Z,3.88
2022-12-31T01:03:43.475Z,4.95
2022-12-31T01:06:10.296Z,4.65
2022-12-31T01:08:37.548Z,4.68
2022-12-31T01:11:05.329Z,4.60
2022-12-31T01:13:32.011Z,4.28
2022-12-31T01:15:58.738Z,4.70
2022-12-31T01:18:26.344Z,4.72
2022-12-31T01:20:53.117Z,4.43
2022-12-31T01:23:19.747Z,4.95
2022-12-31T01:25:46.442Z,4.43
2022-12-31T01:28:13.181Z,4.25
2022-12-31T01:30:40.252Z,4.00
2022-12-31T01:33:06.993Z,4.10
2022-12-31T01:35:36.734Z,3.67
2022-12-31T01:38:04.024Z,4.57
2022-12-31T01:40:30.978Z,4.43
2022-12-31T01:42:58.208Z,3.95
2022-12-31T01:45:25.231Z,4.00
2022-12-31T01:47:59.888Z,3.65
2022-12-31T01:50:32.887Z,4.15
2022-12-31T01:53:05.099Z,4.32
2022-12-31T01:55:33.702Z,4.53
2022-12-31T01:58:23.387Z,4.30
2022-12-31T02:00:52.301Z,4.50
2022-12-31T02:03:22.247Z,4.60
2022-12-31T02:06:24.700Z,4.10
2022-12-31T02:08:51.446Z,4.63
2022-12-31T02:11:24.075Z,4.38
2022-12-31T02:13:58.328Z,4.20
2022-12-31T02:16:38.203Z,4.03
2022-12-31T02:19:38.556Z,3.97
2022-12-31T02:22:09.824Z,4.22
2022-12-31T02:25:16.609Z,4.30
2022-12-31T02:28:07.429Z,3.85
2022-12-31T02:30:36.615Z,4.43
2022-12-31T02:33:19.469Z,4.03
2022-12-31T02:36:02.799Z,4.00
2022-12-31T02:38:33.210Z,3.83
2022-12-31T02:43:26.872Z,4.10
2022-12-31T02:46:15.970Z,3.53
2022-12-31T02:48:52.663Z,3.70
2022-12-31T02:51:39.574Z,3.85
2022-12-31T02:54:17.708Z,3.53
2022-12-31T02:56:50.285Z,3.90
2022-12-31T02:59:25.904Z,3.90
2022-12-31T03:01:59.933Z,3.90
2022-12-31T03:04:28.131Z,4.22
2022-12-31T03:06:55.020Z,4.10
2022-12-31T03:09:21.895Z,3.58
2022-12-31T03:11:48.940Z,4.35
2022-12-31T03:14:15.748Z,3.70
2022-12-31T03:16:42.424Z,3.40
2022-12-31T03:19:09.180Z,3.60
2022-12-31T03:21:35.985Z,3.63
2022-12-31T03:24:02.897Z,3.40
2022-12-31T03:26:29.588Z,3.80
2022-12-31T03:28:56.239Z,3.63
2022-12-31T03:31:23.025Z,4.30
2022-12-31T03:33:49.781Z,3.70
2022-12-31T03:36:16.563Z,3.53
2022-12-31T03:38:44.177Z,3.88
2022-12-31T03:41:13.080Z,4.20
2022-12-31T03:43:40.131Z,3.65
2022-12-31T03:46:06.915Z,3.85
2022-12-31T03:48:33.653Z,3.92
2022-12-31T03:51:00.393Z,3.55
2022-12-31T03:53:27.067Z,3.60
2022-12-31T03:55:54.254Z,3.40
2022-12-31T03:58:22.062Z,3.25
2022-12-31T04:00:49.651Z,3.42
2022-12-31T04:03:16.703Z,3.80
2022-12-31T04:05:44.060Z,3.70
2022-12-31T04:08:10.852Z,3.40
2022-12-31T04:10:37.592Z,3.95
2022-12-31T04:13:04.283Z,3.95
2022-12-31T04:15:31.074Z,3.95
2022-12-31T04:17:58.473Z,3.40
2022-12-31T04:20:25.260Z,3.42
2022-12-31T04:22:51.976Z,3.42
2022-12-31T04:25:18.840Z,3.50
2022-12-31T04:27:45.510Z,3.30
2022-12-31T04:30:14.085Z,3.08
2022-12-31T04:32:41.744Z,3.00
2022-12-31T04:35:09.437Z,2.85
2022-12-31T04:37:36.161Z,3.00
2022-12-31T04:40:06.247Z,2.92
2022-12-31T04:42:34.496Z,3.20
2022-12-31T04:45:01.225Z,2.90
2022-12-31T04:47:28.128Z,2.50
2022-12-31T04:49:54.995Z,2.70
2022-12-31T04:52:22.262Z,2.78
2022-12-31T04:54:49.017Z,3.35
2022-12-31T04:57:15.791Z,2.70
2022-12-31T04:59:42.456Z,2.75
2022-12-31T05:02:11.110Z,2.80
2022-12-31T05:04:38.083Z,2.60
2022-12-31T05:07:05.239Z,2.40
2022-12-31T05:09:31.951Z,3.10
2022-12-31T05:11:58.860Z,3.10
2022-12-31T05:14:26.678Z,2.58
2022-12-31T05:16:53.656Z,2.55
2022-12-31T05:19:20.362Z,2.97
2022-12-31T05:21:47.073Z,2.67
2022-12-31T05:24:13.830Z,3.05
2022-12-31T05:26:40.598Z,3.00
2022-12-31T05:29:07.326Z,2.95
2022-12-31T05:31:34.022Z,3.40
2022-12-31T05:34:00.692Z,3.08
2022-12-31T05:36:27.489Z,3.28
2022-12-31T05:38:54.189Z,2.58
2022-12-31T05:41:20.886Z,3.20
2022-12-31T05:43:47.558Z,3.35
2022-12-31T05:46:14.305Z,2.95
2022-12-31T05:48:41.078Z,2.70
2022-12-31T05:51:08.444Z,2.85
2022-12-31T05:53:36.425Z,2.50
2022-12-31T05:56:03.280Z,2.88
2022-12-31T05:58:30.547Z,2.55
2022-12-31T06:00:59.486Z,2.40
2022-12-31T06:03:26.555Z,2.35
2022-12-31T06:05:53.312Z,2.42
2022-12-31T06:08:20.129Z,1.98
2022-12-31T06:10:47.524Z,2.22
2022-12-31T06:13:14.273Z,2.30
2022-12-31T06:15:40.939Z,2.08
2022-12-31T06:18:08.185Z,2.45
2022-12-31T06:20:38.061Z,2.03
2022-12-31T06:23:04.965Z,2.10
2022-12-31T06:25:31.641Z,1.90
2022-12-31T06:27:58.384Z,1.80
2022-12-31T06:30:25.139Z,2.00
2022-12-31T06:32:51.912Z,1.98
2022-12-31T06:35:18.622Z,2.13
2022-12-31T06:37:45.310Z,2.13
2022-12-31T06:40:12.303Z,1.65
2022-12-31T06:42:39.127Z,1.92
2022-12-31T06:45:06.567Z,1.80
2022-12-31T06:47:33.305Z,1.75
2022-12-31T06:50:00.084Z,1.80
2022-12-31T06:52:26.942Z,1.98
2022-12-31T06:54:53.921Z,2.17
2022-12-31T06:57:20.928Z,2.33
2022-12-31T06:59:47.909Z,2.03
2022-12-31T07:02:19.157Z,2.72
2022-12-31T07:05:13.007Z,1.95
2022-12-31T07:08:02.532Z,2.50
2022-12-31T07:10:47.164Z,2.22
2022-12-31T07:13:51.570Z,2.30
2022-12-31T07:16:30.251Z,2.60
2022-12-31T07:19:34.022Z,2.10
2022-12-31T07:22:00.964Z,3.03
2022-12-31T07:24:28.153Z,3.00
2022-12-31T07:27:05.202Z,2.80
2022-12-31T07:29:37.484Z,3.53
2022-12-31T07:32:34.702Z,3.25
2022-12-31T07:35:19.608Z,3.55
2022-12-31T07:38:16.368Z,2.95
2022-12-31T07:41:12.205Z,3.15
2022-12-31T07:44:00.615Z,3.40
2022-12-31T07:46:55.111Z,3.55
2022-12-31T07:49:22.784Z,2.92
2022-12-31T07:51:49.932Z,3.15
2022-12-31T07:54:16.736Z,3.45
2022-12-31T07:56:44.343Z,3.05
2022-12-31T07:59:32.599Z,3.38
2022-12-31T08:02:27.410Z,3.90
2022-12-31T08:05:15.694Z,5.43
2022-12-31T08:07:54.325Z,5.55
2022-12-31T08:10:57.860Z,4.60
2022-12-31T08:13:25.392Z,5.32
2022-12-31T08:15:52.437Z,4.70
2022-12-31T08:18:19.421Z,4.65
2022-12-31T08:21:07.355Z,4.70
2022-12-31T08:23:47.451Z,4.93
2022-12-31T08:26:32.500Z,5.25
2022-12-31T08:29:14.335Z,5.20
2022-12-31T08:31:54.110Z,4.90
2022-12-31T08:34:41.340Z,4.32
2022-12-31T08:37:18.448Z,4.50
2022-12-31T08:40:15.893Z,4.10
2022-12-31T08:42:57.959Z,3.80
2022-12-31T08:45:49.607Z,3.50
2022-12-31T08:48:40.700Z,3.22
2022-12-31T08:51:17.401Z,3.38
2022-12-31T08:53:44.440Z,3.08
2022-12-31T08:56:21.241Z,2.70
2022-12-31T08:59:00.037Z,2.60
2022-12-31T09:01:30.427Z,2.10
2022-12-31T09:06:33.922Z,2.83
2022-12-31T09:09:12.274Z,2.40
2022-12-31T09:12:03.674Z,2.72
2022-12-31T09:14:55.565Z,2.35
2022-12-31T09:17:47.220Z,2.40
2022-12-31T09:20:17.145Z,2.65
2022-12-31T09:22:44.113Z,2.13
2022-12-31T09:25:19.940Z,1.98
2022-12-31T09:28:11.790Z,2.10
2022-12-31T09:30:58.742Z,1.90
2022-12-31T09:33:55.611Z,1.90
2022-12-31T09:36:28.377Z,1.80
2022-12-31T09:39:33.078Z,1.70
2022-12-31T09:42:35.016Z,1.80
2022-12-31T09:45:19.975Z,1.90
2022-12-31T09:48:17.164Z,1.95
2022-12-31T09:51:02.407Z,2.00
2022-12-31T09:53:29.128Z,1.92
2022-12-31T09:56:11.587Z,2.92
2022-12-31T09:59:10.294Z,1.70
2022-12-31T10:01:50.533Z,2.00
2022-12-31T10:04:54.012Z,3.08
2022-12-31T10:07:52.173Z,3.63
2022-12-31T10:10:30.525Z,3.97
2022-12-31T10:13:28.202Z,3.63
2022-12-31T10:16:24.983Z,3.70
2022-12-31T10:19:13.051Z,3.20
2022-12-31T10:21:42.532Z,3.22
2022-12-31T10:24:40.077Z,3.30
2022-12-31T10:27:47.927Z,2.83
2022-12-31T10:30:23.732Z,3.25
2022-12-31T10:33:06.968Z,3.03
2022-12-31T10:35:42.701Z,3.10
2022-12-31T10:38:35.316Z,2.80
2022-12-31T10:41:21.004Z,2.88
2022-12-31T10:43:50.271Z,2.40
2022-12-31T10:46:55.507Z,3.00
2022-12-31T10:49:37.092Z,2.70
2022-12-31T10:52:25.137Z,2.30
2022-12-31T10:55:07.190Z,2.22
2022-12-31T10:58:10.510Z,2.28
2022-12-31T11:00:56.162Z,2.25
2022-12-31T11:03:53.641Z,2.53
2022-12-31T11:06:56.976Z,2.40
2022-12-31T11:10:03.997Z,2.72
2022-12-31T11:13:03.858Z,2.88
2022-12-31T11:15:50.434Z,2.67
2022-12-31T11:18:31.317Z,2.67
2022-12-31T11:21:10.065Z,2.60
2022-12-31T11:24:05.955Z,2.53
2022-12-31T11:26:44.771Z,3.42
2022-12-31T11:29:22.090Z,3.60
2022-12-31T11:32:06.899Z,4.10
2022-12-31T11:34:48.864Z,3.70
2022-12-31T11:37:30.007Z,3.30
2022-12-31T11:40:14.642Z,3.72
2022-12-31T11:43:18.606Z,3.42
2022-12-31T11:45:54.041Z,3.05
2022-12-31T11:48:36.757Z,2.55
2022-12-31T11:51:37.651Z,3.03
2022-12-31T11:54:26.050Z,2.65
2022-12-31T11:57:11.867Z,2.75
2022-12-31T11:59:38.816Z,3.03
2022-12-31T12:02:28.234Z,2.80
2022-12-31T12:04:57.902Z,2.60
2022-12-31T12:07:25.983Z,2.42
2022-12-31T12:09:55.375Z,2.92
2022-12-31T12:12:22.522Z,2.60
2022-12-31T12:14:55.478Z,2.30
2022-12-31T12:17:33.477Z,2.00
2022-12-31T12:20:08.432Z,2.15
2022-12-31T12:22:35.631Z,2.33
2022-12-31T12:25:15.929Z,2.13
2022-12-31T12:27:42.797Z,1.63
2022-12-31T12:30:22.441Z,1.98
2022-12-31T12:33:00.595Z,1.83
2022-12-31T12:35:31.760Z,2.13
2022-12-31T12:38:14.440Z,2.13
2022-12-31T12:40:41.591Z,2.15
2022-12-31T12:43:22.230Z,2.05
2022-12-31T12:45:52.397Z,1.70
2022-12-31T12:48:37.130Z,1.55
2022-12-31T12:51:28.140Z,1.50
2022-12-31T12:54:00.746Z,1.35
2022-12-31T12:56:42.288Z,1.73
2022-12-31T12:59:40.646Z,1.50
2022-12-31T13:02:47.108Z,1.58
2022-12-31T13:05:27.925Z,1.50
2022-12-31T13:08:16.919Z,1.40
2022-12-31T13:11:01.561Z,1.58
2022-12-31T13:13:53.551Z,1.80
2022-12-31T13:16:25.839Z,1.73
2022-12-31T13:19:08.305Z,1.98
2022-12-31T13:21:40.126Z,1.50
2022-12-31T13:24:29.639Z,1.73
2022-12-31T13:27:20.873Z,1.60
2022-12-31T13:29:48.309Z,1.40
2022-12-31T13:32:23.742Z,1.90
2022-12-31T13:34:56.412Z,1.83
2022-12-31T13:37:31.849Z,1.40
2022-12-31T13:40:05.616Z,2.22
2022-12-31T13:42:42.455Z,1.63
2022-12-31T13:45:22.037Z,1.80
2022-12-31T13:47:54.893Z,1.42
2022-12-31T13:50:22.095Z,1.23
2022-12-31T13:52:54.648Z,1.00
2022-12-31T13:55:30.182Z,1.40
2022-12-31T13:58:05.873Z,1.40
2022-12-31T14:00:43.650Z,1.40
